TimeEDT,TemperatureF,Dew PointF,Humidity,Sea Level PressureIn,VisibilityMPH,Wind Direction,Wind SpeedMPH,Gust SpeedMPH,PrecipitationIn,Events,Conditions,WindDirDegrees,DateUTC
12:42 AM,55.4,53.6,94,30.05,10.0,NE,4.6,-,N/A,,Mostly Cloudy,50,2013-04-30 04:42:00
12:53 AM,57.0,53.1,87,30.03,10.0,NE,4.6,-,N/A,,Mostly Cloudy,50,2013-04-30 04:53:00
1:34 AM,57.2,53.6,88,30.05,10.0,ENE,5.8,-,N/A,,Overcast,70,2013-04-30 05:34:00
1:53 AM,57.9,54.0,87,30.02,10.0,ENE,6.9,-,N/A,,Scattered Clouds,60,2013-04-30 05:53:00
2:32 AM,57.2,53.6,88,30.03,10.0,East,3.5,-,N/A,,Mostly Cloudy,80,2013-04-30 06:32:00
2:53 AM,57.0,54.0,89,30.02,10.0,Calm,Calm,-,N/A,,Overcast,0,2013-04-30 06:53:00
3:19 AM,57.2,53.6,88,30.04,10.0,NNE,5.8,-,N/A,,Mostly Cloudy,30,2013-04-30 07:19:00
3:53 AM,55.9,53.1,90,30.03,10.0,ENE,5.8,-,N/A,,Clear,60,2013-04-30 07:53:00
4:15 AM,55.4,53.6,94,30.05,10.0,NE,3.5,-,N/A,,Mostly Cloudy,50,2013-04-30 08:15:00
4:26 AM,57.2,53.6,88,30.06,10.0,NE,5.8,-,N/A,,Mostly Cloudy,40,2013-04-30 08:26:00
4:40 AM,57.2,53.6,88,30.06,10.0,NE,6.9,-,N/A,,Overcast,40,2013-04-30 08:40:00
4:53 AM,57.0,54.0,89,30.04,9.0,NNE,9.2,-,N/A,,Overcast,30,2013-04-30 08:53:00
5:53 AM,57.0,54.0,89,30.06,5.0,NE,8.1,-,N/A,,Overcast,50,2013-04-30 09:53:00
6:53 AM,57.0,54.0,89,30.09,10.0,NE,6.9,-,N/A,,Overcast,50,2013-04-30 10:53:00
7:32 AM,57.2,53.6,88,30.12,10.0,NNE,9.2,-,N/A,,Overcast,30,2013-04-30 11:32:00
7:53 AM,57.0,54.0,89,30.11,10.0,NE,10.4,-,N/A,,Overcast,50,2013-04-30 11:53:00
8:53 AM,57.9,54.0,87,30.13,10.0,NE,5.8,-,N/A,,Overcast,50,2013-04-30 12:53:00
9:17 AM,57.2,53.6,88,30.15,10.0,ENE,6.9,-,N/A,,Overcast,60,2013-04-30 13:17:00
9:53 AM,60.1,55.0,83,30.14,10.0,NE,6.9,-,N/A,,Overcast,50,2013-04-30 13:53:00
10:48 AM,60.8,55.4,82,30.16,10.0,ENE,8.1,-,N/A,,Overcast,60,2013-04-30 14:48:00
10:53 AM,60.1,54.0,80,30.14,10.0,NE,6.9,-,N/A,,Overcast,40,2013-04-30 14:53:00
11:27 AM,62.6,53.6,72,30.16,10.0,ENE,8.1,-,N/A,,Overcast,70,2013-04-30 15:27:00
11:53 AM,62.1,54.0,75,30.14,10.0,NE,8.1,-,N/A,,Overcast,50,2013-04-30 15:53:00
12:27 PM,64.4,55.4,73,30.15,10.0,ENE,6.9,-,N/A,,Overcast,60,2013-04-30 16:27:00
12:53 PM,64.0,54.0,70,30.12,10.0,East,5.8,-,N/A,,Overcast,80,2013-04-30 16:53:00
1:53 PM,64.9,54.0,68,30.12,10.0,East,4.6,-,N/A,,Overcast,80,2013-04-30 17:53:00
2:53 PM,66.0,54.0,65,30.12,10.0,NNE,9.2,-,N/A,,Overcast,30,2013-04-30 18:53:00
3:53 PM,66.0,55.0,68,30.12,10.0,NE,9.2,-,N/A,,Overcast,40,2013-04-30 19:53:00
4:50 PM,64.4,53.6,68,30.15,10.0,ENE,6.9,-,N/A,,Overcast,70,2013-04-30 20:50:00
4:53 PM,64.9,54.0,68,30.12,10.0,ENE,6.9,-,N/A,,Overcast,60,2013-04-30 20:53:00
5:53 PM,66.0,54.0,65,30.13,10.0,East,8.1,-,N/A,,Overcast,90,2013-04-30 21:53:00
6:53 PM,64.0,53.1,67,30.14,10.0,East,4.6,-,N/A,,Mostly Cloudy,90,2013-04-30 22:53:00
7:53 PM,60.1,55.0,83,30.16,10.0,Calm,Calm,-,N/A,,Partly Cloudy,0,2013-04-30 23:53:00
8:53 PM,55.9,53.1,90,30.18,10.0,Calm,Calm,-,N/A,,Mostly Cloudy,0,2013-05-01 00:53:00
9:53 PM,57.0,52.0,83,30.19,10.0,Calm,Calm,-,N/A,,Mostly Cloudy,0,2013-05-01 01:53:00
10:53 PM,61.0,54.0,78,30.19,10.0,NE,8.1,-,N/A,,Overcast,50,2013-05-01 02:53:00
11:53 PM,60.1,54.0,80,30.19,10.0,NE,9.2,-,N/A,,Overcast,40,2013-05-01 03:53:00